sensor_id;sensor_type;location;lat;lon;timestamp;P1;durP1;ratioP1;P2;durP2;ratioP2
24435;SDS011;12616;52.470;13.436;2023-02-19T00:00:08;4.90;;;3.60;;
24435;SDS011;12616;52.470;13.436;2023-02-19T00:02:38;4.10;;;3.33;;
24435;SDS011;12616;52.470;13.436;2023-02-19T00:05:07;3.33;;;3.00;;
24435;SDS011;12616;52.470;13.436;2023-02-19T00:07:35;4.03;;;2.78;;
24435;SDS011;12616;52.470;13.436;2023-02-19T00:10:01;4.97;;;3.72;;
24435;SDS011;12616;52.470;13.436;2023-02-19T00:12:28;5.30;;;3.92;;
24435;SDS011;12616;52.470;13.436;2023-02-19T00:14:55;5.20;;;3.72;;
24435;SDS011;12616;52.470;13.436;2023-02-19T00:17:22;4.40;;;4.00;;
24435;SDS011;12616;52.470;13.436;2023-02-19T00:19:49;5.50;;;3.53;;
24435;SDS011;12616;52.470;13.436;2023-02-19T00:22:17;5.22;;;3.67;;
24435;SDS011;12616;52.470;13.436;2023-02-19T00:24:44;4.57;;;3.28;;
24435;SDS011;12616;52.470;13.436;2023-02-19T00:27:10;5.00;;;3.72;;
24435;SDS011;12616;52.470;13.436;2023-02-19T00:29:37;4.35;;;3.95;;
24435;SDS011;12616;52.470;13.436;2023-02-19T00:32:04;4.40;;;3.78;;
24435;SDS011;12616;52.470;13.436;2023-02-19T00:34:31;5.25;;;3.50;;
24435;SDS011;12616;52.470;13.436;2023-02-19T00:36:58;4.65;;;4.25;;
24435;SDS011;12616;52.470;13.436;2023-02-19T00:39:26;4.43;;;4.03;;
24435;SDS011;12616;52.470;13.436;2023-02-19T00:41:53;4.88;;;3.67;;
24435;SDS011;12616;52.470;13.436;2023-02-19T00:44:20;4.25;;;3.95;;
24435;SDS011;12616;52.470;13.436;2023-02-19T00:46:47;5.88;;;4.32;;
24435;SDS011;12616;52.470;13.436;2023-02-19T00:49:15;5.82;;;4.90;;
24435;SDS011;12616;52.470;13.436;2023-02-19T00:51:44;6.00;;;4.63;;
24435;SDS011;12616;52.470;13.436;2023-02-19T00:54:11;5.97;;;5.30;;
24435;SDS011;12616;52.470;13.436;2023-02-19T00:56:40;5.20;;;4.70;;
24435;SDS011;12616;52.470;13.436;2023-02-19T00:59:07;5.55;;;4.70;;
24435;SDS011;12616;52.470;13.436;2023-02-19T01:01:34;8.35;;;5.60;;
24435;SDS011;12616;52.470;13.436;2023-02-19T01:04:01;8.18;;;5.88;;
24435;SDS011;12616;52.470;13.436;2023-02-19T01:06:28;6.80;;;5.32;;
24435;SDS011;12616;52.470;13.436;2023-02-19T01:08:56;7.22;;;5.40;;
24435;SDS011;12616;52.470;13.436;2023-02-19T01:11:23;7.07;;;6.03;;
24435;SDS011;12616;52.470;13.436;2023-02-19T01:13:52;8.00;;;5.57;;
24435;SDS011;12616;52.470;13.436;2023-02-19T01:16:22;8.70;;;6.57;;
24435;SDS011;12616;52.470;13.436;2023-02-19T01:18:49;7.05;;;5.95;;
24435;SDS011;12616;52.470;13.436;2023-02-19T01:21:17;8.85;;;6.90;;
24435;SDS011;12616;52.470;13.436;2023-02-19T01:23:47;8.70;;;5.95;;
24435;SDS011;12616;52.470;13.436;2023-02-19T01:26:15;7.10;;;5.20;;
24435;SDS011;12616;52.470;13.436;2023-02-19T01:28:44;10.32;;;5.70;;
24435;SDS011;12616;52.470;13.436;2023-02-19T01:31:14;8.70;;;6.00;;
24435;SDS011;12616;52.470;13.436;2023-02-19T01:33:43;6.53;;;5.80;;
24435;SDS011;12616;52.470;13.436;2023-02-19T01:36:11;6.78;;;5.45;;
24435;SDS011;12616;52.470;13.436;2023-02-19T01:38:38;7.13;;;5.60;;
24435;SDS011;12616;52.470;13.436;2023-02-19T01:41:06;6.72;;;5.93;;
24435;SDS011;12616;52.470;13.436;2023-02-19T01:46:25;7.85;;;5.88;;
24435;SDS011;12616;52.470;13.436;2023-02-19T01:48:53;7.65;;;5.60;;
24435;SDS011;12616;52.470;13.436;2023-02-19T01:51:23;6.72;;;6.03;;
24435;SDS011;12616;52.470;13.436;2023-02-19T01:53:51;6.93;;;5.65;;
24435;SDS011;12616;52.470;13.436;2023-02-19T01:56:21;5.95;;;4.50;;
24435;SDS011;12616;52.470;13.436;2023-02-19T01:58:50;6.80;;;4.47;;
24435;SDS011;12616;52.470;13.436;2023-02-19T02:01:17;5.25;;;4.80;;
24435;SDS011;12616;52.470;13.436;2023-02-19T02:03:45;5.28;;;4.20;;
24435;SDS011;12616;52.470;13.436;2023-02-19T02:06:15;5.50;;;4.85;;
24435;SDS011;12616;52.470;13.436;2023-02-19T02:08:45;6.95;;;4.00;;
24435;SDS011;12616;52.470;13.436;2023-02-19T02:11:32;5.85;;;3.60;;
24435;SDS011;12616;52.470;13.436;2023-02-19T02:13:59;6.70;;;4.40;;
24435;SDS011;12616;52.470;13.436;2023-02-19T02:16:28;4.85;;;3.35;;
24435;SDS011;12616;52.470;13.436;2023-02-19T02:19:08;8.23;;;4.28;;
24435;SDS011;12616;52.470;13.436;2023-02-19T02:21:54;5.95;;;4.35;;
24435;SDS011;12616;52.470;13.436;2023-02-19T02:24:33;4.93;;;4.40;;
24435;SDS011;12616;52.470;13.436;2023-02-19T02:27:16;4.22;;;3.83;;
24435;SDS011;12616;52.470;13.436;2023-02-19T02:30:06;5.80;;;4.68;;
24435;SDS011;12616;52.470;13.436;2023-02-19T02:32:53;5.85;;;4.30;;
24435;SDS011;12616;52.470;13.436;2023-02-19T02:35:26;6.95;;;4.45;;
24435;SDS011;12616;52.470;13.436;2023-02-19T02:37:57;6.10;;;3.85;;
24435;SDS011;12616;52.470;13.436;2023-02-19T02:40:27;4.07;;;3.78;;
24435;SDS011;12616;52.470;13.436;2023-02-19T02:42:55;11.23;;;4.00;;
24435;SDS011;12616;52.470;13.436;2023-02-19T02:45:28;7.53;;;4.43;;
24435;SDS011;12616;52.470;13.436;2023-02-19T02:50:53;4.97;;;3.72;;
24435;SDS011;12616;52.470;13.436;2023-02-19T02:53:24;8.63;;;4.35;;
24435;SDS011;12616;52.470;13.436;2023-02-19T02:56:12;9.88;;;4.60;;
24435;SDS011;12616;52.470;13.436;2023-02-19T02:58:41;7.03;;;4.40;;
24435;SDS011;12616;52.470;13.436;2023-02-19T03:01:12;6.78;;;4.40;;
24435;SDS011;12616;52.470;13.436;2023-02-19T03:04:00;6.75;;;4.32;;
24435;SDS011;12616;52.470;13.436;2023-02-19T03:06:32;5.07;;;3.92;;
24435;SDS011;12616;52.470;13.436;2023-02-19T03:09:04;15.85;;;5.72;;
24435;SDS011;12616;52.470;13.436;2023-02-19T03:11:36;6.13;;;4.07;;
24435;SDS011;12616;52.470;13.436;2023-02-19T03:14:24;11.27;;;4.82;;
24435;SDS011;12616;52.470;13.436;2023-02-19T03:17:15;7.70;;;4.03;;
24435;SDS011;12616;52.470;13.436;2023-02-19T03:20:05;12.18;;;4.68;;
24435;SDS011;12616;52.470;13.436;2023-02-19T03:22:35;7.95;;;3.92;;
24435;SDS011;12616;52.470;13.436;2023-02-19T03:25:04;6.63;;;3.67;;
24435;SDS011;12616;52.470;13.436;2023-02-19T03:27:51;10.15;;;4.00;;
24435;SDS011;12616;52.470;13.436;2023-02-19T03:30:22;8.85;;;5.40;;
24435;SDS011;12616;52.470;13.436;2023-02-19T03:32:54;7.85;;;3.70;;
24435;SDS011;12616;52.470;13.436;2023-02-19T03:35:26;9.35;;;4.78;;
24435;SDS011;12616;52.470;13.436;2023-02-19T03:37:59;7.40;;;4.82;;
24435;SDS011;12616;52.470;13.436;2023-02-19T03:40:30;6.78;;;5.25;;
24435;SDS011;12616;52.470;13.436;2023-02-19T03:43:03;11.48;;;2.92;;
24435;SDS011;12616;52.470;13.436;2023-02-19T03:45:42;10.50;;;4.13;;
24435;SDS011;12616;52.470;13.436;2023-02-19T03:48:19;4.22;;;3.75;;
24435;SDS011;12616;52.470;13.436;2023-02-19T03:50:51;6.40;;;4.05;;
24435;SDS011;12616;52.470;13.436;2023-02-19T03:53:30;6.63;;;4.47;;
24435;SDS011;12616;52.470;13.436;2023-02-19T03:56:05;5.82;;;3.00;;
24435;SDS011;12616;52.470;13.436;2023-02-19T03:58:37;9.65;;;3.90;;
24435;SDS011;12616;52.470;13.436;2023-02-19T04:01:11;4.18;;;3.75;;
24435;SDS011;12616;52.470;13.436;2023-02-19T04:03:44;6.57;;;3.97;;
24435;SDS011;12616;52.470;13.436;2023-02-19T04:06:16;5.43;;;2.42;;
24435;SDS011;12616;52.470;13.436;2023-02-19T04:08:48;7.03;;;2.80;;
24435;SDS011;12616;52.470;13.436;2023-02-19T04:11:18;6.25;;;2.05;;
24435;SDS011;12616;52.470;13.436;2023-02-19T04:13:48;4.65;;;2.60;;
24435;SDS011;12616;52.470;13.436;2023-02-19T04:16:20;5.50;;;3.00;;
24435;SDS011;12616;52.470;13.436;2023-02-19T04:18:53;5.03;;;2.78;;
24435;SDS011;12616;52.470;13.436;2023-02-19T04:21:24;4.45;;;2.47;;
24435;SDS011;12616;52.470;13.436;2023-02-19T04:23:53;7.38;;;2.45;;
24435;SDS011;12616;52.470;13.436;2023-02-19T04:26:23;7.60;;;3.85;;
24435;SDS011;12616;52.470;13.436;2023-02-19T04:28:49;3.42;;;3.13;;
24435;SDS011;12616;52.470;13.436;2023-02-19T04:31:17;5.70;;;3.20;;
24435;SDS011;12616;52.470;13.436;2023-02-19T04:33:44;4.35;;;3.30;;
24435;SDS011;12616;52.470;13.436;2023-02-19T04:36:12;6.78;;;3.50;;
24435;SDS011;12616;52.470;13.436;2023-02-19T04:38:38;8.20;;;3.50;;
24435;SDS011;12616;52.470;13.436;2023-02-19T04:41:05;3.45;;;2.97;;
24435;SDS011;12616;52.470;13.436;2023-02-19T04:43:33;6.43;;;3.35;;
24435;SDS011;12616;52.470;13.436;2023-02-19T04:46:00;5.93;;;3.30;;
24435;SDS011;12616;52.470;13.436;2023-02-19T04:48:28;6.93;;;2.75;;
24435;SDS011;12616;52.470;13.436;2023-02-19T04:50:55;11.75;;;2.38;;
24435;SDS011;12616;52.470;13.436;2023-02-19T04:53:23;11.93;;;2.40;;
24435;SDS011;12616;52.470;13.436;2023-02-19T04:55:50;2.95;;;1.67;;
24435;SDS011;12616;52.470;13.436;2023-02-19T04:58:18;2.80;;;1.75;;
24435;SDS011;12616;52.470;13.436;2023-02-19T05:00:46;1.85;;;1.67;;
24435;SDS011;12616;52.470;13.436;2023-02-19T05:03:17;6.03;;;1.70;;
24435;SDS011;12616;52.470;13.436;2023-02-19T05:05:46;3.83;;;2.38;;
24435;SDS011;12616;52.470;13.436;2023-02-19T05:08:13;3.85;;;2.60;;
24435;SDS011;12616;52.470;13.436;2023-02-19T05:10:42;3.53;;;2.25;;
24435;SDS011;12616;52.470;13.436;2023-02-19T05:13:09;5.55;;;3.10;;
24435;SDS011;12616;52.470;13.436;2023-02-19T05:15:36;5.22;;;2.85;;
24435;SDS011;12616;52.470;13.436;2023-02-19T05:18:03;3.88;;;2.72;;
24435;SDS011;12616;52.470;13.436;2023-02-19T05:20:30;2.75;;;2.47;;
24435;SDS011;12616;52.470;13.436;2023-02-19T05:22:57;4.55;;;3.30;;
24435;SDS011;12616;52.470;13.436;2023-02-19T05:25:24;4.35;;;2.88;;
24435;SDS011;12616;52.470;13.436;2023-02-19T05:27:53;5.15;;;2.83;;
24435;SDS011;12616;52.470;13.436;2023-02-19T05:30:40;4.53;;;3.30;;
24435;SDS011;12616;52.470;13.436;2023-02-19T05:33:09;3.72;;;2.63;;
24435;SDS011;12616;52.470;13.436;2023-02-19T05:35:39;4.45;;;3.03;;
24435;SDS011;12616;52.470;13.436;2023-02-19T05:38:06;5.10;;;2.72;;
24435;SDS011;12616;52.470;13.436;2023-02-19T05:40:33;4.47;;;3.60;;
24435;SDS011;12616;52.470;13.436;2023-02-19T05:43:02;5.82;;;3.38;;
24435;SDS011;12616;52.470;13.436;2023-02-19T05:45:29;3.63;;;3.33;;
24435;SDS011;12616;52.470;13.436;2023-02-19T05:47:56;3.50;;;2.63;;
24435;SDS011;12616;52.470;13.436;2023-02-19T05:50:23;4.95;;;3.15;;
24435;SDS011;12616;52.470;13.436;2023-02-19T05:52:50;5.10;;;3.70;;
24435;SDS011;12616;52.470;13.436;2023-02-19T05:55:17;4.57;;;3.13;;
24435;SDS011;12616;52.470;13.436;2023-02-19T05:57:45;4.25;;;2.90;;
24435;SDS011;12616;52.470;13.436;2023-02-19T06:00:15;4.90;;;2.90;;
24435;SDS011;12616;52.470;13.436;2023-02-19T06:02:43;7.40;;;3.05;;
24435;SDS011;12616;52.470;13.436;2023-02-19T06:05:10;4.53;;;3.42;;
24435;SDS011;12616;52.470;13.436;2023-02-19T06:07:38;5.80;;;2.75;;
24435;SDS011;12616;52.470;13.436;2023-02-19T06:10:06;7.43;;;3.22;;
24435;SDS011;12616;52.470;13.436;2023-02-19T06:12:34;6.40;;;3.22;;
24435;SDS011;12616;52.470;13.436;2023-02-19T06:15:01;7.50;;;2.58;;
24435;SDS011;12616;52.470;13.436;2023-02-19T06:17:30;2.85;;;2.13;;
24435;SDS011;12616;52.470;13.436;2023-02-19T06:19:58;6.85;;;2.70;;
24435;SDS011;12616;52.470;13.436;2023-02-19T06:22:25;2.60;;;2.38;;
24435;SDS011;12616;52.470;13.436;2023-02-19T06:24:52;7.90;;;3.30;;
24435;SDS011;12616;52.470;13.436;2023-02-19T06:27:20;3.08;;;2.63;;
24435;SDS011;12616;52.470;13.436;2023-02-19T06:29:47;9.68;;;2.90;;
24435;SDS011;12616;52.470;13.436;2023-02-19T06:32:14;4.03;;;2.70;;
24435;SDS011;12616;52.470;13.436;2023-02-19T06:34:42;5.53;;;2.97;;
24435;SDS011;12616;52.470;13.436;2023-02-19T06:37:10;4.25;;;3.88;;
24435;SDS011;12616;52.470;13.436;2023-02-19T06:39:37;8.48;;;3.22;;
24435;SDS011;12616;52.470;13.436;2023-02-19T06:42:04;6.60;;;2.92;;
24435;SDS011;12616;52.470;13.436;2023-02-19T06:44:31;5.68;;;2.65;;
24435;SDS011;12616;52.470;13.436;2023-02-19T06:46:58;4.10;;;2.75;;
24435;SDS011;12616;52.470;13.436;2023-02-19T06:49:25;6.65;;;3.40;;
24435;SDS011;12616;52.470;13.436;2023-02-19T06:51:54;4.47;;;3.03;;
24435;SDS011;12616;52.470;13.436;2023-02-19T06:54:21;5.30;;;3.17;;
24435;SDS011;12616;52.470;13.436;2023-02-19T06:56:49;3.78;;;2.42;;
24435;SDS011;12616;52.470;13.436;2023-02-19T06:59:16;7.63;;;3.20;;
24435;SDS011;12616;52.470;13.436;2023-02-19T07:01:44;3.42;;;2.42;;
24435;SDS011;12616;52.470;13.436;2023-02-19T07:04:11;4.35;;;2.35;;
24435;SDS011;12616;52.470;13.436;2023-02-19T07:06:38;4.85;;;2.78;;
24435;SDS011;12616;52.470;13.436;2023-02-19T07:09:09;4.10;;;2.65;;
24435;SDS011;12616;52.470;13.436;2023-02-19T07:11:37;6.43;;;2.30;;
24435;SDS011;12616;52.470;13.436;2023-02-19T07:14:05;2.20;;;2.00;;
24435;SDS011;12616;52.470;13.436;2023-02-19T07:16:33;3.08;;;2.35;;
24435;SDS011;12616;52.470;13.436;2023-02-19T07:19:00;10.35;;;5.40;;
24435;SDS011;12616;52.470;13.436;2023-02-19T07:21:34;7.40;;;3.35;;
24435;SDS011;12616;52.470;13.436;2023-02-19T07:24:02;5.93;;;3.00;;
24435;SDS011;12616;52.470;13.436;2023-02-19T07:26:31;4.63;;;2.67;;
24435;SDS011;12616;52.470;13.436;2023-02-19T07:28:57;3.97;;;2.83;;
24435;SDS011;12616;52.470;13.436;2023-02-19T07:31:24;4.40;;;3.10;;
24435;SDS011;12616;52.470;13.436;2023-02-19T07:33:54;9.02;;;2.33;;
24435;SDS011;12616;52.470;13.436;2023-02-19T07:36:22;10.45;;;2.88;;
24435;SDS011;12616;52.470;13.436;2023-02-19T07:38:52;6.57;;;2.60;;
24435;SDS011;12616;52.470;13.436;2023-02-19T07:41:20;6.47;;;2.53;;
24435;SDS011;12616;52.470;13.436;2023-02-19T07:43:48;2.97;;;2.55;;
24435;SDS011;12616;52.470;13.436;2023-02-19T07:46:16;5.43;;;2.42;;
24435;SDS011;12616;52.470;13.436;2023-02-19T07:48:42;5.70;;;2.78;;
24435;SDS011;12616;52.470;13.436;2023-02-19T07:51:10;4.63;;;2.78;;
24435;SDS011;12616;52.470;13.436;2023-02-19T07:53:39;3.50;;;2.22;;
24435;SDS011;12616;52.470;13.436;2023-02-19T07:56:06;3.95;;;2.47;;
24435;SDS011;12616;52.470;13.436;2023-02-19T07:58:35;2.75;;;2.10;;
24435;SDS011;12616;52.470;13.436;2023-02-19T08:01:07;4.55;;;2.20;;
24435;SDS011;12616;52.470;13.436;2023-02-19T08:03:35;5.45;;;2.30;;
24435;SDS011;12616;52.470;13.436;2023-02-19T08:06:01;7.80;;;2.33;;
24435;SDS011;12616;52.470;13.436;2023-02-19T08:08:28;3.17;;;2.90;;
24435;SDS011;12616;52.470;13.436;2023-02-19T08:10:57;2.60;;;2.40;;
24435;SDS011;12616;52.470;13.436;2023-02-19T08:13:43;6.93;;;3.10;;
24435;SDS011;12616;52.470;13.436;2023-02-19T08:16:14;4.10;;;2.45;;
24435;SDS011;12616;52.470;13.436;2023-02-19T08:18:43;4.15;;;2.90;;
24435;SDS011;12616;52.470;13.436;2023-02-19T08:21:11;4.18;;;2.42;;
24435;SDS011;12616;52.470;13.436;2023-02-19T08:23:38;5.45;;;3.00;;
24435;SDS011;12616;52.470;13.436;2023-02-19T08:26:05;7.45;;;2.53;;
24435;SDS011;12616;52.470;13.436;2023-02-19T08:28:33;6.95;;;2.53;;
24435;SDS011;12616;52.470;13.436;2023-02-19T08:31:02;5.00;;;2.80;;
24435;SDS011;12616;52.470;13.436;2023-02-19T08:33:34;4.05;;;3.40;;
24435;SDS011;12616;52.470;13.436;2023-02-19T08:36:05;6.97;;;3.45;;
24435;SDS011;12616;52.470;13.436;2023-02-19T08:38:34;4.22;;;2.35;;
24435;SDS011;12616;52.470;13.436;2023-02-19T08:41:04;7.00;;;2.47;;
24435;SDS011;12616;52.470;13.436;2023-02-19T08:43:32;6.00;;;3.28;;
24435;SDS011;12616;52.470;13.436;2023-02-19T08:45:59;5.80;;;3.20;;
24435;SDS011;12616;52.470;13.436;2023-02-19T08:48:26;6.32;;;2.80;;
24435;SDS011;12616;52.470;13.436;2023-02-19T08:50:55;25.58;;;4.13;;
24435;SDS011;12616;52.470;13.436;2023-02-19T08:53:22;9.35;;;3.30;;
24435;SDS011;12616;52.470;13.436;2023-02-19T08:55:50;4.80;;;2.92;;
24435;SDS011;12616;52.470;13.436;2023-02-19T08:58:18;6.07;;;2.85;;
24435;SDS011;12616;52.470;13.436;2023-02-19T09:00:45;5.20;;;3.13;;
24435;SDS011;12616;52.470;13.436;2023-02-19T09:03:12;2.60;;;1.77;;
24435;SDS011;12616;52.470;13.436;2023-02-19T09:05:39;4.30;;;2.63;;
24435;SDS011;12616;52.470;13.436;2023-02-19T09:08:08;3.38;;;2.60;;
24435;SDS011;12616;52.470;13.436;2023-02-19T09:10:36;4.25;;;2.42;;
24435;SDS011;12616;52.470;13.436;2023-02-19T09:13:03;4.20;;;2.78;;
24435;SDS011;12616;52.470;13.436;2023-02-19T09:15:30;4.18;;;2.70;;
24435;SDS011;12616;52.470;13.436;2023-02-19T09:17:58;5.65;;;3.00;;
24435;SDS011;12616;52.470;13.436;2023-02-19T09:20:25;4.43;;;2.30;;
24435;SDS011;12616;52.470;13.436;2023-02-19T09:22:55;6.25;;;2.38;;
24435;SDS011;12616;52.470;13.436;2023-02-19T09:25:24;8.57;;;3.58;;
24435;SDS011;12616;52.470;13.436;2023-02-19T09:27:53;5.65;;;2.97;;
24435;SDS011;12616;52.470;13.436;2023-02-19T09:30:20;3.47;;;2.60;;
24435;SDS011;12616;52.470;13.436;2023-02-19T09:32:52;6.35;;;1.90;;
24435;SDS011;12616;52.470;13.436;2023-02-19T09:35:19;5.15;;;2.40;;
24435;SDS011;12616;52.470;13.436;2023-02-19T09:37:46;6.95;;;2.70;;
24435;SDS011;12616;52.470;13.436;2023-02-19T09:43:25;2.13;;;1.92;;
24435;SDS011;12616;52.470;13.436;2023-02-19T09:46:00;9.48;;;2.60;;
24435;SDS011;12616;52.470;13.436;2023-02-19T09:48:29;4.30;;;2.95;;
24435;SDS011;12616;52.470;13.436;2023-02-19T09:50:56;4.93;;;2.15;;
24435;SDS011;12616;52.470;13.436;2023-02-19T09:53:26;2.42;;;2.20;;
24435;SDS011;12616;52.470;13.436;2023-02-19T09:55:57;7.60;;;2.33;;
24435;SDS011;12616;52.470;13.436;2023-02-19T09:58:27;8.70;;;2.38;;
24435;SDS011;12616;52.470;13.436;2023-02-19T10:00:59;8.25;;;2.88;;
24435;SDS011;12616;52.470;13.436;2023-02-19T10:03:32;3.00;;;2.28;;
24435;SDS011;12616;52.470;13.436;2023-02-19T10:06:06;5.22;;;3.05;;
24435;SDS011;12616;52.470;13.436;2023-02-19T10:08:38;5.45;;;2.33;;
24435;SDS011;12616;52.470;13.436;2023-02-19T10:11:05;7.70;;;2.42;;
24435;SDS011;12616;52.470;13.436;2023-02-19T10:13:39;2.63;;;1.58;;
24435;SDS011;12616;52.470;13.436;2023-02-19T10:16:09;13.27;;;2.72;;
24435;SDS011;12616;52.470;13.436;2023-02-19T10:18:42;4.25;;;1.60;;
24435;SDS011;12616;52.470;13.436;2023-02-19T10:21:10;6.95;;;2.20;;
24435;SDS011;12616;52.470;13.436;2023-02-19T10:23:43;4.85;;;1.77;;
24435;SDS011;12616;52.470;13.436;2023-02-19T10:26:11;4.22;;;2.15;;
24435;SDS011;12616;52.470;13.436;2023-02-19T10:28:40;8.02;;;3.60;;
24435;SDS011;12616;52.470;13.436;2023-02-19T10:31:17;4.38;;;1.92;;
24435;SDS011;12616;52.470;13.436;2023-02-19T10:33:52;4.53;;;2.53;;
24435;SDS011;12616;52.470;13.436;2023-02-19T10:36:49;6.18;;;1.95;;
24435;SDS011;12616;52.470;13.436;2023-02-19T10:39:26;6.35;;;2.72;;
24435;SDS011;12616;52.470;13.436;2023-02-19T10:41:58;5.78;;;2.22;;
24435;SDS011;12616;52.470;13.436;2023-02-19T10:44:28;5.53;;;2.20;;
24435;SDS011;12616;52.470;13.436;2023-02-19T10:46:58;5.05;;;2.22;;
24435;SDS011;12616;52.470;13.436;2023-02-19T10:49:26;2.90;;;2.15;;
24435;SDS011;12616;52.470;13.436;2023-02-19T10:51:59;2.15;;;1.75;;
24435;SDS011;12616;52.470;13.436;2023-02-19T10:54:30;6.22;;;1.90;;
24435;SDS011;12616;52.470;13.436;2023-02-19T10:57:14;6.03;;;2.20;;
24435;SDS011;12616;52.470;13.436;2023-02-19T11:00:02;4.47;;;2.50;;
24435;SDS011;12616;52.470;13.436;2023-02-19T11:02:46;3.60;;;1.80;;
24435;SDS011;12616;52.470;13.436;2023-02-19T11:05:14;7.82;;;2.17;;
24435;SDS011;12616;52.470;13.436;2023-02-19T11:07:44;2.45;;;1.42;;
24435;SDS011;12616;52.470;13.436;2023-02-19T11:10:24;3.65;;;1.75;;
24435;SDS011;12616;52.470;13.436;2023-02-19T11:12:53;7.30;;;1.65;;
24435;SDS011;12616;52.470;13.436;2023-02-19T11:15:24;1.95;;;1.23;;
24435;SDS011;12616;52.470;13.436;2023-02-19T11:17:54;4.45;;;1.83;;
24435;SDS011;12616;52.470;13.436;2023-02-19T11:20:22;4.10;;;1.90;;
24435;SDS011;12616;52.470;13.436;2023-02-19T11:22:50;2.22;;;1.80;;
24435;SDS011;12616;52.470;13.436;2023-02-19T11:25:18;5.03;;;2.00;;
24435;SDS011;12616;52.470;13.436;2023-02-19T11:27:53;3.28;;;1.80;;
24435;SDS011;12616;52.470;13.436;2023-02-19T11:30:33;1.63;;;1.52;;
24435;SDS011;12616;52.470;13.436;2023-02-19T11:35:56;3.28;;;2.22;;
24435;SDS011;12616;52.470;13.436;2023-02-19T11:38:42;1.75;;;1.25;;
24435;SDS011;12616;52.470;13.436;2023-02-19T11:41:09;3.15;;;1.77;;
24435;SDS011;12616;52.470;13.436;2023-02-19T11:43:47;1.58;;;1.42;;
24435;SDS011;12616;52.470;13.436;2023-02-19T11:46:27;4.90;;;2.10;;
24435;SDS011;12616;52.470;13.436;2023-02-19T11:49:02;7.60;;;1.65;;
24435;SDS011;12616;52.470;13.436;2023-02-19T11:51:50;2.00;;;1.63;;
24435;SDS011;12616;52.470;13.436;2023-02-19T11:54:33;3.70;;;1.73;;
24435;SDS011;12616;52.470;13.436;2023-02-19T11:57:13;2.40;;;1.50;;
24435;SDS011;12616;52.470;13.436;2023-02-19T11:59:50;4.90;;;1.85;;
24435;SDS011;12616;52.470;13.436;2023-02-19T12:05:42;2.97;;;1.35;;
24435;SDS011;12616;52.470;13.436;2023-02-19T12:08:28;6.60;;;1.75;;
24435;SDS011;12616;52.470;13.436;2023-02-19T12:11:19;3.00;;;1.60;;
24435;SDS011;12616;52.470;13.436;2023-02-19T12:14:28;1.85;;;1.50;;
24435;SDS011;12616;52.470;13.436;2023-02-19T12:17:23;4.55;;;1.80;;
24435;SDS011;12616;52.470;13.436;2023-02-19T12:20:09;1.52;;;1.42;;
24435;SDS011;12616;52.470;13.436;2023-02-19T12:22:45;3.53;;;1.63;;
24435;SDS011;12616;52.470;13.436;2023-02-19T12:25:21;2.17;;;1.40;;
24435;SDS011;12616;52.470;13.436;2023-02-19T12:28:00;5.65;;;1.73;;
24435;SDS011;12616;52.470;13.436;2023-02-19T12:30:50;2.90;;;1.85;;
24435;SDS011;12616;52.470;13.436;2023-02-19T12:33:53;3.15;;;1.40;;
24435;SDS011;12616;52.470;13.436;2023-02-19T12:36:42;3.63;;;2.38;;
24435;SDS011;12616;52.470;13.436;2023-02-19T12:39:22;5.65;;;1.80;;
24435;SDS011;12616;52.470;13.436;2023-02-19T12:41:58;5.13;;;1.85;;
24435;SDS011;12616;52.470;13.436;2023-02-19T12:44:32;2.75;;;1.65;;
24435;SDS011;12616;52.470;13.436;2023-02-19T12:47:04;5.22;;;2.55;;
24435;SDS011;12616;52.470;13.436;2023-02-19T12:49:34;6.38;;;2.05;;
24435;SDS011;12616;52.470;13.436;2023-02-19T12:52:05;5.18;;;2.15;;
24435;SDS011;12616;52.470;13.436;2023-02-19T12:54:39;1.90;;;1.40;;
24435;SDS011;12616;52.470;13.436;2023-02-19T12:57:08;2.53;;;1.70;;
24435;SDS011;12616;52.470;13.436;2023-02-19T12:59:41;6.75;;;1.63;;
24435;SDS011;12616;52.470;13.436;2023-02-19T13:02:14;4.68;;;1.50;;
24435;SDS011;12616;52.470;13.436;2023-02-19T13:04:46;5.13;;;1.45;;
24435;SDS011;12616;52.470;13.436;2023-02-19T13:07:19;3.95;;;1.35;;
24435;SDS011;12616;52.470;13.436;2023-02-19T13:09:51;3.08;;;1.65;;
24435;SDS011;12616;52.470;13.436;2023-02-19T13:12:22;5.57;;;1.73;;
24435;SDS011;12616;52.470;13.436;2023-02-19T13:14:54;5.00;;;1.30;;
24435;SDS011;12616;52.470;13.436;2023-02-19T13:17:25;4.82;;;1.63;;
24435;SDS011;12616;52.470;13.436;2023-02-19T13:19:57;2.15;;;1.35;;
24435;SDS011;12616;52.470;13.436;2023-02-19T13:22:30;4.35;;;2.13;;
24435;SDS011;12616;52.470;13.436;2023-02-19T13:25:20;2.75;;;1.10;;
24435;SDS011;12616;52.470;13.436;2023-02-19T13:28:00;2.22;;;1.67;;
24435;SDS011;12616;52.470;13.436;2023-02-19T13:30:42;3.08;;;1.65;;
24435;SDS011;12616;52.470;13.436;2023-02-19T13:33:29;3.60;;;0.95;;
24435;SDS011;12616;52.470;13.436;2023-02-19T13:38:51;6.53;;;2.88;;
24435;SDS011;12616;52.470;13.436;2023-02-19T13:41:27;2.00;;;1.77;;
24435;SDS011;12616;52.470;13.436;2023-02-19T13:43:57;7.45;;;1.48;;
24435;SDS011;12616;52.470;13.436;2023-02-19T13:46:32;5.65;;;1.50;;
24435;SDS011;12616;52.470;13.436;2023-02-19T13:58:37;1.63;;;1.20;;
24435;SDS011;12616;52.470;13.436;2023-02-19T14:04:41;3.33;;;2.00;;
24435;SDS011;12616;52.470;13.436;2023-02-19T14:07:19;4.97;;;1.50;;
24435;SDS011;12616;52.470;13.436;2023-02-19T14:10:02;2.45;;;1.00;;
24435;SDS011;12616;52.470;13.436;2023-02-19T14:12:31;2.72;;;1.30;;
24435;SDS011;12616;52.470;13.436;2023-02-19T14:18:16;1.70;;;1.60;;
24435;SDS011;12616;52.470;13.436;2023-02-19T14:21:12;2.55;;;1.73;;
24435;SDS011;12616;52.470;13.436;2023-02-19T14:23:41;4.72;;;1.88;;
24435;SDS011;12616;52.470;13.436;2023-02-19T14:26:08;2.35;;;1.50;;
24435;SDS011;12616;52.470;13.436;2023-02-19T14:28:36;4.05;;;1.48;;
24435;SDS011;12616;52.470;13.436;2023-02-19T14:31:19;4.60;;;1.60;;
24435;SDS011;12616;52.470;13.436;2023-02-19T14:33:53;2.38;;;2.17;;
24435;SDS011;12616;52.470;13.436;2023-02-19T14:36:35;2.95;;;1.73;;
24435;SDS011;12616;52.470;13.436;2023-02-19T14:39:09;2.35;;;1.98;;
24435;SDS011;12616;52.470;13.436;2023-02-19T14:41:40;4.72;;;1.80;;
24435;SDS011;12616;52.470;13.436;2023-02-19T14:44:12;3.80;;;2.00;;
24435;SDS011;12616;52.470;13.436;2023-02-19T14:46:44;2.85;;;1.25;;
24435;SDS011;12616;52.470;13.436;2023-02-19T14:49:20;4.93;;;1.73;;
24435;SDS011;12616;52.470;13.436;2023-02-19T14:51:52;2.15;;;1.55;;
24435;SDS011;12616;52.470;13.436;2023-02-19T14:54:28;1.30;;;1.20;;
24435;SDS011;12616;52.470;13.436;2023-02-19T14:57:04;2.10;;;1.65;;
24435;SDS011;12616;52.470;13.436;2023-02-19T14:59:37;2.67;;;1.42;;
24435;SDS011;12616;52.470;13.436;2023-02-19T15:02:12;8.57;;;1.73;;
24435;SDS011;12616;52.470;13.436;2023-02-19T15:04:42;4.28;;;2.75;;
24435;SDS011;12616;52.470;13.436;2023-02-19T15:07:09;2.50;;;1.88;;
24435;SDS011;12616;52.470;13.436;2023-02-19T15:09:40;6.30;;;2.28;;
24435;SDS011;12616;52.470;13.436;2023-02-19T15:12:13;3.35;;;1.67;;
24435;SDS011;12616;52.470;13.436;2023-02-19T15:14:42;4.00;;;1.42;;
24435;SDS011;12616;52.470;13.436;2023-02-19T15:17:11;5.97;;;2.40;;
24435;SDS011;12616;52.470;13.436;2023-02-19T15:19:46;2.88;;;1.30;;
24435;SDS011;12616;52.470;13.436;2023-02-19T15:22:13;2.70;;;1.60;;
24435;SDS011;12616;52.470;13.436;2023-02-19T15:24:43;3.58;;;1.40;;
24435;SDS011;12616;52.470;13.436;2023-02-19T15:27:12;10.60;;;2.78;;
24435;SDS011;12616;52.470;13.436;2023-02-19T15:29:43;2.83;;;2.15;;
24435;SDS011;12616;52.470;13.436;2023-02-19T15:32:14;3.15;;;1.83;;